Time;durP1;ratioP1;P1;durP2;ratioP2;P2;SDS_P1;SDS_P2;PMS_P1;PMS_P2;Temp;Humidity;BMP_temperature;BMP_pressure;BME280_temperature;BME280_humidity;BME280_pressure;Samples;Min_cycle;Max_cycle;Signal;HPM_P1;HPM_P2
2023/04/16 00:00:37;;;;;;;19.20;10.07;;;;;;;10.17;100.00;100964.47;5074855;28;20443;-69
2023/04/16 00:03:04;;;;;;;20.70;10.73;;;;;;;10.15;100.00;100969.38;5075043;28;20514;-69
2023/04/16 00:05:30;;;;;;;23.03;10.20;;;;;;;10.20;100.00;100963.91;5075082;28;20520;-69
2023/04/16 00:07:57;;;;;;;22.00;10.00;;;;;;;10.21;100.00;100973.63;5074978;28;20869;-69
2023/04/16 00:10:25;;;;;;;20.27;10.70;;;;;;;10.14;100.00;100962.38;5075012;28;20544;-69
2023/04/16 00:12:52;;;;;;;23.60;11.10;;;;;;;10.18;100.00;100973.41;5074857;28;20497;-69
2023/04/16 00:15:18;;;;;;;22.40;11.40;;;;;;;10.16;100.00;100968.28;5073738;28;20564;-69
2023/04/16 00:17:45;;;;;;;24.60;12.40;;;;;;;10.19;100.00;100969.63;5074739;28;20484;-69
2023/04/16 00:20:11;;;;;;;20.83;9.70;;;;;;;10.19;100.00;100970.44;5074771;28;20452;-70
2023/04/16 00:22:38;;;;;;;21.57;11.93;;;;;;;10.19;100.00;100970.44;5074295;28;20900;-69
2023/04/16 00:25:05;;;;;;;28.90;11.20;;;;;;;10.19;100.00;100970.44;5074384;28;20468;-69
2023/04/16 00:27:33;;;;;;;18.93;10.30;;;;;;;10.11;100.00;100974.56;5074648;28;20543;-69
2023/04/16 00:30:00;;;;;;;23.83;12.57;;;;;;;10.11;100.00;100974.56;5074520;28;20463;-69
2023/04/16 00:32:26;;;;;;;21.23;11.50;;;;;;;10.13;100.00;100979.69;5074434;28;20493;-69
2023/04/16 00:34:53;;;;;;;26.63;11.60;;;;;;;10.15;100.00;100979.41;5074336;28;20447;-69
2023/04/16 00:37:20;;;;;;;23.73;10.50;;;;;;;10.14;100.00;100972.38;5074378;28;20447;-68
2023/04/16 00:39:46;;;;;;;23.87;11.53;;;;;;;10.10;100.00;100974.88;5074285;28;20524;-69
2023/04/16 00:42:13;;;;;;;21.90;10.93;;;;;;;10.07;100.00;100968.13;5073892;28;21043;-69
2023/04/16 00:44:41;;;;;;;22.47;9.80;;;;;;;10.13;100.00;100976.97;5073887;28;20463;-69
2023/04/16 00:47:08;;;;;;;22.97;10.47;;;;;;;10.12;100.00;100975.38;5074214;28;20437;-69
2023/04/16 00:49:35;;;;;;;20.00;10.27;;;;;;;10.02;100.00;100972.78;5074108;28;20477;-69
2023/04/16 00:52:02;;;;;;;20.30;10.20;;;;;;;10.00;100.00;100981.19;5074025;28;20560;-69
2023/04/16 00:54:30;;;;;;;19.90;10.70;;;;;;;10.07;100.00;100972.72;5074021;28;20484;-69
2023/04/16 00:56:58;;;;;;;25.10;11.00;;;;;;;10.09;100.00;100979.47;5073583;28;20695;-69
2023/04/16 00:59:25;;;;;;;22.03;11.40;;;;;;;10.06;100.00;100976.53;5073966;28;20434;-69
2023/04/16 01:01:53;;;;;;;18.80;10.77;;;;;;;9.82;100.00;100971.88;5073849;28;20457;-70
2023/04/16 01:04:19;;;;;;;22.30;10.83;;;;;;;9.82;100.00;100982.72;5073513;28;20480;-69
2023/04/16 01:06:46;;;;;;;23.83;11.37;;;;;;;9.82;100.00;100976.50;5073755;28;20445;-69
2023/04/16 01:09:13;;;;;;;19.10;10.40;;;;;;;9.76;100.00;100983.06;5073795;28;20449;-69
2023/04/16 01:11:39;;;;;;;26.47;12.20;;;;;;;9.79;100.00;100987.91;5073348;28;20442;-69
2023/04/16 01:14:06;;;;;;;25.60;11.60;;;;;;;9.70;100.00;100990.44;5073681;28;20445;-69
2023/04/16 01:16:32;;;;;;;22.70;10.90;;;;;;;9.79;100.00;100990.63;5073537;28;20488;-69
2023/04/16 01:19:00;;;;;;;20.10;10.00;;;;;;;9.80;100.00;100993.03;5073594;28;20503;-69
2023/04/16 01:21:28;;;;;;;20.63;10.70;;;;;;;9.78;100.00;100991.69;5073292;28;20477;-69
2023/04/16 01:23:55;;;;;;;24.97;11.50;;;;;;;9.85;100.00;101001.09;5073235;28;20524;-69
2023/04/16 01:26:21;;;;;;;23.97;11.90;;;;;;;9.86;100.00;101002.69;5072317;28;20438;-69
2023/04/16 01:28:48;;;;;;;22.40;11.43;;;;;;;9.92;100.00;100999.97;5073062;28;20540;-69
2023/04/16 01:31:15;;;;;;;22.60;11.20;;;;;;;9.94;100.00;101001.28;5073423;28;20437;-69
2023/04/16 01:33:41;;;;;;;24.13;10.40;;;;;;;9.94;100.00;101000.47;5072583;28;20824;-69
2023/04/16 01:36:08;;;;;;;28.40;11.47;;;;;;;9.89;100.00;100997.81;5073277;28;20572;-68
2023/04/16 01:38:36;;;;;;;22.90;11.17;;;;;;;9.93;100.00;101005.09;5073017;28;20437;-69
2023/04/16 01:41:02;;;;;;;25.53;11.73;;;;;;;9.89;100.00;101009.44;5073303;28;20441;-69
2023/04/16 01:43:29;;;;;;;27.77;11.40;;;;;;;9.85;100.00;101003.00;5072773;28;20850;-70
2023/04/16 01:46:12;;;;;;;23.13;10.17;;;;;;;9.84;100.00;101004.09;5072966;28;20939;-73
2023/04/16 01:48:38;;;;;;;22.57;10.40;;;;;;;9.79;100.00;101018.47;5072952;28;20946;-73
2023/04/16 01:51:05;;;;;;;22.33;10.90;;;;;;;9.76;100.00;101010.91;5073270;28;20856;-70
2023/04/16 01:53:32;;;;;;;24.60;10.07;;;;;;;9.74;100.00;101017.69;5073097;28;20461;-69
2023/04/16 01:56:00;;;;;;;23.47;10.67;;;;;;;9.70;100.00;101022.88;5073047;28;20477;-68
2023/04/16 01:58:28;;;;;;;17.97;9.40;;;;;;;9.72;100.00;101019.88;5072832;28;20882;-69
2023/04/16 02:00:55;;;;;;;20.67;10.50;;;;;;;9.78;100.00;101026.84;5073075;28;20444;-68
2023/04/16 02:03:23;;;;;;;26.60;11.97;;;;;;;9.79;100.00;101021.19;5072725;28;20551;-68
2023/04/16 02:05:50;;;;;;;20.13;10.20;;;;;;;9.80;100.00;101025.50;5073074;28;20444;-69
2023/04/16 02:08:16;;;;;;;20.00;10.90;;;;;;;9.75;100.00;101022.84;5072968;28;20445;-69
2023/04/16 02:10:45;;;;;;;21.97;10.40;;;;;;;9.74;100.00;101023.09;5073018;28;20548;-68
2023/04/16 02:13:14;;;;;;;21.90;10.27;;;;;;;9.62;100.00;101025.41;5072628;28;21055;-69
2023/04/16 02:15:44;;;;;;;19.63;11.03;;;;;;;9.44;100.00;101026.88;5072882;28;20481;-69
2023/04/16 02:18:10;;;;;;;29.43;12.97;;;;;;;9.49;100.00;101021.44;5073443;28;20453;-68
2023/04/16 02:20:40;;;;;;;25.07;12.70;;;;;;;9.51;100.00;101024.66;5072635;28;20527;-68
2023/04/16 02:23:06;;;;;;;25.43;11.37;;;;;;;9.46;100.00;101028.22;5072518;28;20467;-69
2023/04/16 02:25:37;;;;;;;28.97;12.43;;;;;;;9.45;100.00;101026.59;5072898;28;20480;-68
2023/04/16 02:28:04;;;;;;;17.77;10.20;;;;;;;9.46;100.00;101025.50;5072850;28;20433;-68
2023/04/16 02:30:33;;;;;;;27.00;11.13;;;;;;;9.46;100.00;101035.50;5072524;28;20442;-68
2023/04/16 02:33:00;;;;;;;20.07;11.70;;;;;;;9.47;100.00;101034.41;5072639;28;20461;-68
2023/04/16 02:35:27;;;;;;;26.43;13.07;;;;;;;9.49;100.00;101043.06;5072718;28;20495;-68
2023/04/16 02:37:54;;;;;;;24.70;11.97;;;;;;;9.47;100.00;101040.63;5073485;28;20444;-68
2023/04/16 02:40:20;;;;;;;29.87;13.27;;;;;;;9.45;100.00;101042.03;5076667;28;20448;-68
2023/04/16 02:42:47;;;;;;;26.30;13.60;;;;;;;9.45;100.00;101036.63;5076471;28;20508;-68
2023/04/16 02:45:14;;;;;;;25.73;12.70;;;;;;;9.46;100.00;101044.44;5076129;28;20970;-68
2023/04/16 02:47:42;;;;;;;27.30;13.37;;;;;;;9.52;100.00;101050.63;5076528;28;20473;-68
2023/04/16 02:50:09;;;;;;;25.97;12.37;;;;;;;9.44;100.00;101045.81;5076416;28;20487;-68
2023/04/16 02:52:36;;;;;;;29.57;14.23;;;;;;;9.34;100.00;101052.09;5076341;28;20492;-70
2023/04/16 02:55:03;;;;;;;29.23;11.67;;;;;;;9.37;100.00;101053.44;5076039;28;20451;-68
2023/04/16 02:57:29;;;;;;;27.07;13.73;;;;;;;9.33;100.00;101055.88;5076230;28;20597;-68
2023/04/16 02:59:56;;;;;;;26.67;12.93;;;;;;;9.28;100.00;101059.44;5076245;28;20445;-68
2023/04/16 03:02:22;;;;;;;28.20;12.90;;;;;;;9.22;100.00;101057.84;5076167;28;20488;-68
2023/04/16 03:04:50;;;;;;;29.87;13.17;;;;;;;9.26;100.00;101056.22;5076021;28;20455;-67
2023/04/16 03:07:17;;;;;;;30.83;13.07;;;;;;;9.19;100.00;101049.50;5076182;28;20433;-68
2023/04/16 03:09:44;;;;;;;36.37;13.70;;;;;;;9.28;100.00;101053.22;5076071;28;20519;-68
2023/04/16 03:12:10;;;;;;;28.60;13.50;;;;;;;9.35;100.00;101062.63;5075955;28;20469;-68
2023/04/16 03:14:37;;;;;;;26.70;13.77;;;;;;;9.32;100.00;101054.28;5075668;28;20524;-68
2023/04/16 03:17:03;;;;;;;24.50;12.60;;;;;;;9.23;100.00;101054.06;5075939;28;20480;-68
2023/04/16 03:19:30;;;;;;;29.17;13.60;;;;;;;9.25;100.00;101064.56;5075948;28;20532;-68
2023/04/16 03:21:58;;;;;;;25.00;11.83;;;;;;;9.27;100.00;101070.53;5075536;28;20485;-68
2023/04/16 03:24:24;;;;;;;30.00;13.90;;;;;;;9.14;100.00;101069.25;5075829;28;20464;-68
2023/04/16 03:26:51;;;;;;;24.60;13.03;;;;;;;9.14;100.00;101061.16;5075755;28;20516;-68
2023/04/16 03:29:18;;;;;;;22.93;11.67;;;;;;;9.13;100.00;101059.53;5075760;28;20437;-69
2023/04/16 03:31:44;;;;;;;33.07;11.40;;;;;;;9.17;100.00;101057.09;5075664;28;20876;-68
2023/04/16 03:34:11;;;;;;;31.17;14.33;;;;;;;9.16;100.00;101064.34;5075706;28;20485;-68
2023/04/16 03:36:37;;;;;;;21.77;11.80;;;;;;;9.27;100.00;101065.94;5075547;28;20481;-68
2023/04/16 03:39:05;;;;;;;27.90;12.03;;;;;;;9.23;100.00;101067.56;5075553;28;20441;-68
2023/04/16 03:41:32;;;;;;;21.90;11.47;;;;;;;9.29;100.00;101061.03;5075438;28;20449;-68
2023/04/16 03:43:58;;;;;;;27.53;12.50;;;;;;;9.22;100.00;101071.38;5075257;28;20453;-68
2023/04/16 03:46:25;;;;;;;27.87;12.07;;;;;;;9.16;100.00;101077.88;5075433;28;20444;-68
2023/04/16 03:48:51;;;;;;;27.67;12.50;;;;;;;9.12;100.00;101076.84;5074808;28;20935;-69
2023/04/16 03:51:18;;;;;;;25.30;11.17;;;;;;;9.09;100.00;101074.69;5074266;28;20815;-69
2023/04/16 03:53:45;;;;;;;27.00;12.90;;;;;;;9.04;100.00;101074.72;5074946;28;20994;-68
2023/04/16 03:56:13;;;;;;;24.53;11.87;;;;;;;9.00;100.00;101079.88;5074894;28;20528;-69
2023/04/16 03:58:39;;;;;;;21.00;11.63;;;;;;;8.87;100.00;101077.78;5075212;28;20465;-68
2023/04/16 04:01:06;;;;;;;23.80;13.60;;;;;;;8.91;100.00;101081.53;5075161;28;20442;-68
2023/04/16 04:03:32;;;;;;;21.60;10.90;;;;;;;8.92;100.00;101079.63;5074981;28;20544;-68
2023/04/16 04:05:59;;;;;;;27.90;13.17;;;;;;;8.94;100.00;101091.81;5074722;28;20488;-68
2023/04/16 04:08:25;;;;;;;21.30;12.57;;;;;;;8.94;100.00;101091.81;5075017;28;20441;-68
2023/04/16 04:10:52;;;;;;;28.20;12.40;;;;;;;8.94;100.00;101099.06;5074941;28;20444;-68
2023/04/16 04:13:20;;;;;;;24.70;13.03;;;;;;;8.97;100.00;101095.81;5074816;28;20469;-68
2023/04/16 04:15:47;;;;;;;29.50;13.33;;;;;;;9.00;100.00;101100.69;5074482;28;20449;-68
2023/04/16 04:18:13;;;;;;;24.10;12.10;;;;;;;9.02;100.00;101109.31;5074371;28;21003;-68
2023/04/16 04:20:40;;;;;;;23.93;12.37;;;;;;;8.99;100.00;101105.28;5074739;28;20979;-67
2023/04/16 04:23:07;;;;;;;31.77;12.70;;;;;;;9.05;100.00;101108.75;5074592;28;20469;-68
2023/04/16 04:25:33;;;;;;;25.27;13.27;;;;;;;9.04;100.00;101107.94;5074619;28;20449;-68
2023/04/16 04:28:00;;;;;;;31.73;12.10;;;;;;;9.10;100.00;101114.13;5075856;28;20532;-68
2023/04/16 04:30:28;;;;;;;22.53;12.00;;;;;;;9.14;100.00;101112.50;5074588;28;20443;-68
2023/04/16 04:32:54;;;;;;;24.80;10.80;;;;;;;9.15;100.00;101119.50;5074454;28;20458;-68
2023/04/16 04:35:21;;;;;;;33.20;14.37;;;;;;;9.17;100.00;101122.75;5074421;28;20445;-68
2023/04/16 04:37:48;;;;;;;22.10;11.30;;;;;;;9.13;100.00;101121.69;5074294;28;20485;-68
2023/04/16 04:40:15;;;;;;;29.00;12.80;;;;;;;9.15;100.00;101122.22;5074436;28;20510;-67
2023/04/16 04:42:42;;;;;;;26.87;10.80;;;;;;;9.14;100.00;101122.50;5073919;28;20468;-68
2023/04/16 04:45:10;;;;;;;25.50;11.40;;;;;;;9.16;100.00;101123.81;5073890;28;20463;-68
2023/04/16 04:47:38;;;;;;;21.83;11.63;;;;;;;9.07;100.00;101128.19;5073870;28;20441;-67
2023/04/16 04:50:06;;;;;;;23.77;12.23;;;;;;;9.12;100.00;101136.31;5073823;28;20810;-68
2023/04/16 04:52:32;;;;;;;22.03;11.13;;;;;;;9.14;100.00;101131.41;5074066;28;20493;-68
2023/04/16 04:54:59;;;;;;;23.23;11.93;;;;;;;9.18;100.00;101123.56;5074042;28;20524;-67
2023/04/16 04:57:26;;;;;;;23.40;12.57;;;;;;;9.11;100.00;101134.66;5073924;28;20477;-68
2023/04/16 04:59:52;;;;;;;22.57;10.73;;;;;;;9.03;100.00;101132.53;5073918;28;20445;-68
2023/04/16 05:02:19;;;;;;;19.77;11.40;;;;;;;9.06;100.00;101137.38;5073340;28;20461;-68
2023/04/16 05:04:47;;;;;;;22.60;11.50;;;;;;;9.06;100.00;101143.59;5073927;28;20442;-68
2023/04/16 05:07:13;;;;;;;27.07;12.07;;;;;;;9.19;100.00;101144.09;5073852;28;20536;-68
2023/04/16 05:09:40;;;;;;;26.77;11.17;;;;;;;9.12;100.00;101139.00;5073457;28;20948;-68
2023/04/16 05:12:06;;;;;;;17.67;10.77;;;;;;;9.18;100.00;101143.28;5073714;28;20457;-68
2023/04/16 05:14:33;;;;;;;23.80;11.87;;;;;;;9.13;100.00;101147.91;5073746;28;20452;-68
2023/04/16 05:17:00;;;;;;;21.10;11.33;;;;;;;9.09;100.00;101150.34;5073278;28;20995;-68
2023/04/16 05:19:27;;;;;;;23.70;11.50;;;;;;;9.20;100.00;101149.22;5073624;28;20441;-69
2023/04/16 05:21:55;;;;;;;23.27;9.83;;;;;;;9.20;100.00;101149.22;5073562;28;20825;-68
2023/04/16 05:24:22;;;;;;;27.10;12.47;;;;;;;9.13;100.00;101148.72;5073532;28;20446;-68
2023/04/16 05:26:49;;;;;;;29.33;11.63;;;;;;;9.18;100.00;101154.09;5073257;28;20437;-68
2023/04/16 05:29:16;;;;;;;23.00;11.93;;;;;;;9.29;100.00;101150.25;5073196;28;20575;-68
2023/04/16 05:31:42;;;;;;;38.77;11.50;;;;;;;9.38;100.00;101155.06;5073407;28;20469;-68
2023/04/16 05:34:09;;;;;;;18.83;9.83;;;;;;;9.35;100.00;101156.44;5073143;28;20532;-68
2023/04/16 05:36:35;;;;;;;23.70;12.23;;;;;;;9.37;100.00;101162.38;5073298;28;20445;-68
2023/04/16 05:39:03;;;;;;;22.87;11.70;;;;;;;9.34;100.00;101160.22;5073416;28;20440;-68
2023/04/16 05:41:30;;;;;;;23.87;11.20;;;;;;;9.31;100.00;101172.41;5073270;28;20437;-68
2023/04/16 05:43:57;;;;;;;26.40;12.20;;;;;;;9.38;100.00;101179.41;5073103;28;20909;-68
2023/04/16 05:46:23;;;;;;;26.73;11.07;;;;;;;9.41;100.00;101176.97;5072953;28;20536;-68
2023/04/16 05:48:50;;;;;;;27.00;12.17;;;;;;;9.46;100.00;101173.41;5072963;28;20440;-68
2023/04/16 05:51:16;;;;;;;21.43;11.83;;;;;;;9.48;100.00;101179.38;5073250;28;20446;-68
2023/04/16 05:53:43;;;;;;;24.10;12.03;;;;;;;9.40;100.00;101186.16;5073124;28;20875;-71
2023/04/16 05:56:11;;;;;;;20.57;9.57;;;;;;;9.30;100.00;101181.63;5072925;28;20978;-71
2023/04/16 05:58:38;;;;;;;24.27;11.53;;;;;;;9.32;100.00;101186.75;5072778;28;20493;-69
2023/04/16 06:01:06;;;;;;;20.60;10.73;;;;;;;9.41;100.00;101186.97;5073078;28;20496;-69
2023/04/16 06:03:32;;;;;;;27.40;11.43;;;;;;;9.44;100.00;101187.22;5073031;28;20469;-68
2023/04/16 06:05:59;;;;;;;26.57;12.20;;;;;;;9.50;100.00;101196.09;5072763;28;20536;-68
2023/04/16 06:08:26;;;;;;;23.10;10.97;;;;;;;9.53;100.00;101184.75;5072741;28;20440;-68
2023/04/16 06:10:53;;;;;;;21.60;11.00;;;;;;;9.51;100.00;101193.13;5072666;28;20540;-70
2023/04/16 06:13:21;;;;;;;23.70;12.13;;;;;;;9.29;100.00;101193.50;5074091;28;21007;-71
2023/04/16 06:15:48;;;;;;;20.97;10.07;;;;;;;9.32;100.00;101200.25;5076842;28;20532;-68
2023/04/16 06:18:14;;;;;;;21.67;10.37;;;;;;;9.30;100.00;101197.03;5076860;28;20575;-68
2023/04/16 06:20:41;;;;;;;24.37;11.30;;;;;;;9.29;100.00;101198.91;5077065;28;20473;-66
2023/04/16 06:23:07;;;;;;;23.30;10.13;;;;;;;9.37;100.00;101199.41;5076968;28;20545;-67
2023/04/16 06:25:34;;;;;;;21.30;11.57;;;;;;;9.34;100.00;101198.91;5076960;28;20437;-67
2023/04/16 06:28:00;;;;;;;18.77;10.23;;;;;;;9.34;100.00;101208.88;5076926;28;20437;-67
2023/04/16 06:30:28;;;;;;;24.80;11.27;;;;;;;9.38;100.00;101209.13;5076871;28;20523;-67
2023/04/16 06:32:55;;;;;;;30.50;11.90;;;;;;;9.44;100.00;101214.25;5076687;28;20556;-67
2023/04/16 06:35:22;;;;;;;25.97;12.47;;;;;;;9.48;100.00;101215.31;5076803;28;20481;-67
2023/04/16 06:37:48;;;;;;;22.03;10.80;;;;;;;9.51;100.00;101225.56;5076615;28;20575;-67
2023/04/16 06:40:15;;;;;;;22.77;10.87;;;;;;;9.54;100.00;101221.50;5076671;28;20473;-67
2023/04/16 06:42:42;;;;;;;23.17;11.17;;;;;;;9.51;100.00;101222.06;5076553;28;20803;-67
2023/04/16 06:45:09;;;;;;;20.20;10.53;;;;;;;9.54;100.00;101226.94;5076344;28;20461;-67
2023/04/16 06:47:37;;;;;;;22.30;10.93;;;;;;;9.56;100.00;101227.44;5076193;28;20469;-67
2023/04/16 06:50:04;;;;;;;29.20;12.07;;;;;;;9.59;100.00;101226.88;5076472;28;20437;-67
2023/04/16 06:52:31;;;;;;;27.07;11.17;;;;;;;9.49;100.00;101226.94;5076319;28;20468;-67
2023/04/16 06:54:58;;;;;;;20.23;11.27;;;;;;;9.46;100.00;101230.19;5076376;28;20452;-67
2023/04/16 06:57:25;;;;;;;23.57;11.37;;;;;;;9.46;100.00;101227.50;5076290;28;20477;-67
2023/04/16 06:59:51;;;;;;;21.47;10.33;;;;;;;9.42;100.00;101232.66;5076222;28;20467;-67
2023/04/16 07:02:18;;;;;;;24.70;12.47;;;;;;;9.46;100.00;101235.59;5076167;28;20492;-67
2023/04/16 07:04:46;;;;;;;19.07;9.23;;;;;;;9.40;100.00;101224.00;5076184;28;20541;-67
2023/04/16 07:07:12;;;;;;;23.17;11.17;;;;;;;9.42;100.00;101234.53;5076326;28;20532;-67
2023/04/16 07:09:39;;;;;;;22.63;10.93;;;;;;;9.49;100.00;101232.34;5075781;28;20805;-68
2023/04/16 07:12:07;;;;;;;22.90;11.17;;;;;;;9.44;100.00;101235.09;5075958;28;20469;-68
2023/04/16 07:14:33;;;;;;;21.23;9.50;;;;;;;9.45;100.00;101240.22;5076141;28;20807;-68
2023/04/16 07:17:00;;;;;;;20.27;10.20;;;;;;;9.44;100.00;101233.19;5075921;28;20534;-68
2023/04/16 07:19:29;;;;;;;16.30;8.80;;;;;;;9.45;100.00;101239.41;5075915;28;20437;-67
2023/04/16 07:21:57;;;;;;;22.00;11.37;;;;;;;9.52;100.00;101242.63;5075526;28;20975;-68
2023/04/16 07:24:24;;;;;;;26.07;12.07;;;;;;;9.47;100.00;101245.34;5075855;28;20536;-68
2023/04/16 07:26:50;;;;;;;26.57;10.90;;;;;;;9.47;100.00;101251.53;5075876;28;20873;-68
2023/04/16 07:29:17;;;;;;;23.07;11.13;;;;;;;9.41;100.00;101257.25;5075747;28;20520;-67
2023/04/16 07:31:44;;;;;;;25.13;11.20;;;;;;;9.34;100.00;101255.69;5075702;28;20447;-68
2023/04/16 07:34:11;;;;;;;26.07;11.63;;;;;;;9.38;100.00;101263.22;5075739;28;20529;-68
2023/04/16 07:36:38;;;;;;;24.10;10.00;;;;;;;9.33;100.00;101264.03;5075696;28;20562;-68
2023/04/16 07:39:06;;;;;;;22.77;9.97;;;;;;;9.40;100.00;101261.06;5075469;28;20477;-68
2023/04/16 07:41:32;;;;;;;25.10;10.80;;;;;;;9.38;100.00;101261.31;5075470;28;20445;-68
2023/04/16 07:43:59;;;;;;;22.47;8.87;;;;;;;9.48;100.00;101266.72;5075297;28;20457;-68
2023/04/16 07:46:26;;;;;;;21.37;10.60;;;;;;;9.55;100.00;101275.31;5075473;28;20528;-68
2023/04/16 07:48:52;;;;;;;21.30;9.90;;;;;;;9.59;100.00;101272.88;5075106;28;20485;-68
2023/04/16 07:51:19;;;;;;;30.40;12.20;;;;;;;9.60;100.00;101271.78;5075331;28;20545;-68
2023/04/16 07:53:46;;;;;;;23.50;10.53;;;;;;;9.67;100.00;101275.00;5075162;28;20457;-68
2023/04/16 07:56:13;;;;;;;23.83;9.70;;;;;;;9.77;100.00;101277.66;5075315;28;20441;-68
2023/04/16 07:58:40;;;;;;;28.03;12.83;;;;;;;9.63;100.00;101279.34;5074899;28;20483;-68
2023/04/16 08:01:07;;;;;;;17.30;8.93;;;;;;;9.69;100.00;101277.41;5074930;28;20449;-68
2023/04/16 08:03:33;;;;;;;35.43;11.03;;;;;;;9.80;100.00;101282.50;5075140;28;20548;-68
2023/04/16 08:06:00;;;;;;;22.73;11.03;;;;;;;9.79;100.00;101286.31;5075145;28;20433;-68
2023/04/16 08:08:27;;;;;;;26.27;11.57;;;;;;;9.83;100.00;101281.97;5074737;28;20476;-68
2023/04/16 08:10:54;;;;;;;24.17;10.37;;;;;;;9.70;100.00;101290.69;5074949;28;20438;-70
2023/04/16 08:13:23;;;;;;;20.40;9.93;;;;;;;9.74;100.00;101291.75;5074738;28;20470;-68
2023/04/16 08:15:50;;;;;;;25.80;9.03;;;;;;;9.76;100.00;101286.84;5074399;28;20521;-67
2023/04/16 08:18:16;;;;;;;23.37;10.77;;;;;;;9.81;100.00;101288.72;5074404;28;20488;-67
2023/04/16 08:20:43;;;;;;;21.20;11.17;;;;;;;9.89;100.00;101292.75;5074510;28;20449;-67
2023/04/16 08:23:10;;;;;;;17.73;9.63;;;;;;;9.90;100.00;101297.88;5074723;28;20515;-67
2023/04/16 08:25:36;;;;;;;19.33;8.53;;;;;;;9.92;100.00;101300.31;5074724;28;20445;-67
2023/04/16 08:28:03;;;;;;;21.80;10.10;;;;;;;9.99;100.00;101300.81;5074611;28;20529;-67
2023/04/16 08:30:31;;;;;;;16.60;9.33;;;;;;;10.03;100.00;101307.28;5074617;28;20524;-67
2023/04/16 08:32:58;;;;;;;21.70;9.17;;;;;;;10.08;100.00;101312.66;5074465;28;20540;-67
2023/04/16 08:35:24;;;;;;;20.63;10.20;;;;;;;10.11;100.00;101314.81;5073975;28;20472;-68
2023/04/16 08:37:52;;;;;;;20.23;10.27;;;;;;;10.09;100.00;101314.28;5074246;28;20963;-67
2023/04/16 08:40:19;;;;;;;19.77;11.23;;;;;;;10.03;100.00;101320.81;5074409;28;20535;-67
2023/04/16 08:42:52;;;;;;;19.10;9.70;;;;;;;10.07;100.00;101322.69;5074020;28;20461;-68
2023/04/16 08:45:19;;;;;;;23.87;9.60;;;;;;;10.18;100.00;101328.88;5074078;28;20815;-68
2023/04/16 08:47:48;;;;;;;22.57;11.83;;;;;;;10.20;100.00;101328.59;5074091;28;20437;-67
2023/04/16 08:50:16;;;;;;;16.83;9.13;;;;;;;10.15;100.00;101334.03;5074285;28;20452;-67
2023/04/16 08:52:51;;;;;;;19.33;9.67;;;;;;;10.12;100.00;101338.09;5073921;28;20448;-68
2023/04/16 08:55:21;;;;;;;21.73;9.47;;;;;;;10.04;100.00;101333.25;5074420;28;20478;-67
2023/04/16 08:57:52;;;;;;;19.33;9.57;;;;;;;9.98;100.00;101337.09;5073778;28;21007;-73
2023/04/16 09:00:19;;;;;;;24.90;11.33;;;;;;;9.92;100.00;101333.59;5073974;28;20449;-74
2023/04/16 09:02:48;;;;;;;21.30;10.50;;;;;;;9.88;100.00;101342.56;5074033;28;20457;-70
2023/04/16 09:05:17;;;;;;;24.40;10.83;;;;;;;9.94;100.00;101334.13;5073776;28;20939;-70
2023/04/16 09:07:44;;;;;;;28.60;11.43;;;;;;;9.91;100.00;101336.56;5073714;28;20479;-70
2023/04/16 09:10:12;;;;;;;17.30;9.43;;;;;;;9.75;100.00;101342.06;5074122;28;20433;-72
2023/04/16 09:12:40;;;;;;;22.53;9.77;;;;;;;9.80;100.00;101343.94;5073951;28;20481;-70
2023/04/16 09:15:09;;;;;;;28.47;10.57;;;;;;;9.89;100.00;101336.06;5073797;28;20441;-71
2023/04/16 09:17:36;;;;;;;19.33;9.10;;;;;;;9.90;100.00;101341.19;5073614;28;20438;-70
2023/04/16 09:20:07;;;;;;;21.50;9.03;;;;;;;9.86;100.00;101351.75;5074090;28;20491;-70
2023/04/16 09:22:34;;;;;;;21.63;9.87;;;;;;;10.00;100.00;101351.94;5073963;28;20504;-71
2023/04/16 09:25:00;;;;;;;20.43;10.20;;;;;;;10.03;100.00;101358.72;5073620;28;20441;-70
2023/04/16 09:27:28;;;;;;;21.10;8.90;;;;;;;10.07;100.00;101351.66;5073602;28;20437;-70
2023/04/16 09:29:54;;;;;;;23.93;9.37;;;;;;;10.10;100.00;101356.53;5073772;28;20433;-70
2023/04/16 09:32:26;;;;;;;20.63;9.47;;;;;;;10.15;100.00;101356.50;5073674;28;20461;-70
2023/04/16 09:34:57;;;;;;;19.47;9.57;;;;;;;10.14;100.00;101363.00;5073961;28;20441;-71
2023/04/16 09:37:28;;;;;;;18.03;9.23;;;;;;;10.15;100.00;101363.81;5073523;28;20445;-69
2023/04/16 09:39:57;;;;;;;21.43;10.10;;;;;;;10.17;100.00;101357.00;5073646;28;20465;-70
2023/04/16 09:42:26;;;;;;;20.93;8.60;;;;;;;9.94;100.00;101369.31;5073530;28;20471;-70
2023/04/16 09:44:53;;;;;;;15.30;8.30;;;;;;;10.01;100.00;101361.72;5073260;28;20460;-70
2023/04/16 09:47:20;;;;;;;19.67;9.60;;;;;;;10.11;100.00;101368.97;5072717;28;20826;-70
2023/04/16 09:49:46;;;;;;;21.50;9.40;;;;;;;10.16;100.00;101371.63;5073083;28;20783;-70
2023/04/16 09:52:14;;;;;;;20.40;9.90;;;;;;;10.27;100.00;101367.84;5072995;28;20971;-70
2023/04/16 09:54:47;;;;;;;21.27;9.87;;;;;;;10.38;100.00;101374.00;5073248;28;20449;-70
2023/04/16 09:57:15;;;;;;;22.13;9.50;;;;;;;10.36;100.00;101370.75;5072982;28;20960;-70
2023/04/16 09:59:41;;;;;;;19.10;9.27;;;;;;;10.48;100.00;101373.09;5072770;28;20483;-70
2023/04/16 10:02:09;;;;;;;23.50;9.60;;;;;;;10.50;100.00;101370.94;5073073;28;20540;-70
2023/04/16 10:04:45;;;;;;;20.80;9.47;;;;;;;10.57;100.00;101383.06;5072764;28;20472;-70
2023/04/16 10:07:12;;;;;;;22.40;9.27;;;;;;;10.45;100.00;101376.41;5073251;28;20430;-70
2023/04/16 10:09:40;;;;;;;19.17;8.03;;;;;;;10.54;100.00;101382.84;5073080;28;20479;-70
2023/04/16 10:12:09;;;;;;;20.20;9.20;;;;;;;10.57;100.00;101376.84;5073055;28;20556;-70
2023/04/16 10:14:36;;;;;;;22.83;9.80;;;;;;;10.61;100.00;101377.91;5073007;28;20453;-70
2023/04/16 10:17:03;;;;;;;16.37;7.67;;;;;;;10.71;100.00;101379.72;5073007;28;20528;-72
2023/04/16 10:19:31;;;;;;;22.73;10.03;;;;;;;10.82;100.00;101384.78;5072522;28;21022;-71
2023/04/16 10:21:58;;;;;;;20.57;8.90;;;;;;;10.77;100.00;101381.31;5072873;28;20492;-71
2023/04/16 10:24:25;;;;;;;20.33;10.40;;;;;;;10.88;100.00;101388.25;5072897;28;20445;-70
2023/04/16 10:26:52;;;;;;;20.33;8.87;;;;;;;10.93;100.00;101387.41;5072828;28;20441;-70
2023/04/16 10:29:21;;;;;;;21.20;9.43;;;;;;;10.97;100.00;101396.59;5072922;28;20438;-70
2023/04/16 10:31:49;;;;;;;25.27;8.87;;;;;;;11.12;100.00;101396.50;5072449;28;21011;-70
2023/04/16 10:34:16;;;;;;;18.70;8.80;;;;;;;11.27;100.00;101398.25;5072813;28;20791;-70
2023/04/16 10:36:47;;;;;;;18.87;9.13;;;;;;;11.48;100.00;101398.88;5072810;28;20437;-70
2023/04/16 10:39:21;;;;;;;16.37;7.80;;;;;;;11.72;100.00;101393.44;5072984;28;20951;-70
2023/04/16 10:41:48;;;;;;;17.87;8.90;;;;;;;11.99;100.00;101396.41;5072690;28;20429;-70
2023/04/16 10:44:17;;;;;;;15.40;7.57;;;;;;;12.22;100.00;101402.94;5072154;28;21035;-70
2023/04/16 10:46:49;;;;;;;15.63;7.73;;;;;;;12.40;100.00;101395.09;5072640;28;20849;-70
2023/04/16 10:49:17;;;;;;;16.40;8.13;;;;;;;12.37;100.00;101391.84;5072428;28;20430;-70
2023/04/16 10:51:53;;;;;;;19.37;9.17;;;;;;;12.22;100.00;101396.66;5072247;28;20455;-70
2023/04/16 10:54:22;;;;;;;18.93;8.40;;;;;;;12.06;100.00;101401.50;5072315;28;20429;-70
2023/04/16 10:56:50;;;;;;;17.13;7.67;;;;;;;11.85;100.00;101395.50;5072636;28;20536;-70
2023/04/16 10:59:19;;;;;;;14.07;6.70;;;;;;;11.86;100.00;101406.09;5073382;28;20489;-70
2023/04/16 11:01:48;;;;;;;15.30;6.97;;;;;;;11.93;100.00;101410.34;5076450;28;20485;-70
2023/04/16 11:04:35;;;;;;;15.00;6.30;;;;;;;11.94;100.00;101409.25;5076359;28;20476;-70
2023/04/16 11:07:04;;;;;;;18.43;7.20;;;;;;;11.95;100.00;101405.41;5075922;28;20429;-70
2023/04/16 11:09:54;;;;;;;15.30;7.90;;;;;;;11.64;100.00;101405.72;5076143;28;20437;-70